createdAt,value
2018-01-02T00:00:11.096Z,5.11
2018-01-02T00:02:39.489Z,5.14
2018-01-02T00:05:07.843Z,5.15
2018-01-02T00:07:36.142Z,5.09
2018-01-02T00:10:04.822Z,5.08
2018-01-02T00:12:33.215Z,5.04
2018-01-02T00:15:04.924Z,5.22
2018-01-02T00:17:34.090Z,5.35
2018-01-02T00:20:05.372Z,5.43
2018-01-02T00:22:34.795Z,5.46
2018-01-02T00:25:03.133Z,5.43
2018-01-02T00:27:31.599Z,5.38
2018-01-02T00:29:59.883Z,5.44
2018-01-02T00:32:28.650Z,5.49
2018-01-02T00:34:57.102Z,5.51
2018-01-02T00:37:25.811Z,5.45
2018-01-02T00:39:54.181Z,5.47
2018-01-02T00:42:22.819Z,5.47
2018-01-02T00:44:51.187Z,5.53
2018-01-02T00:47:19.765Z,5.44
2018-01-02T00:49:48.659Z,5.46
2018-01-02T00:52:17.191Z,5.41
2018-01-02T00:54:47.769Z,5.30
2018-01-02T00:57:16.274Z,5.22
2018-01-02T00:59:45.556Z,5.22
2018-01-02T01:02:14.535Z,5.20
2018-01-02T01:04:45.935Z,5.13
2018-01-02T01:07:14.870Z,5.01
2018-01-02T01:09:43.694Z,4.99
2018-01-02T01:12:12.014Z,4.91
2018-01-02T01:14:40.351Z,4.90
2018-01-02T01:19:43.435Z,4.87
2018-01-02T01:22:12.042Z,4.84
2018-01-02T01:24:40.330Z,4.67
2018-01-02T01:27:08.627Z,4.67
2018-01-02T01:29:36.948Z,4.71
2018-01-02T01:32:05.405Z,4.60
2018-01-02T01:34:33.734Z,4.58
2018-01-02T01:37:02.073Z,4.55
2018-01-02T01:39:30.499Z,4.55
2018-01-02T01:41:59.022Z,4.46
2018-01-02T01:44:27.463Z,4.45
2018-01-02T01:46:55.826Z,4.48
2018-01-02T01:49:24.119Z,4.48
2018-01-02T01:51:52.511Z,4.48
2018-01-02T01:54:21.838Z,4.51
2018-01-02T01:56:50.168Z,4.50
2018-01-02T01:59:18.450Z,4.47
2018-01-02T02:01:46.742Z,4.52
2018-01-02T02:04:15.027Z,4.50
2018-01-02T02:06:43.404Z,4.41
2018-01-02T02:09:11.688Z,4.41
2018-01-02T02:11:46.787Z,4.43
2018-01-02T02:14:15.072Z,4.35
2018-01-02T02:16:43.388Z,4.40
2018-01-02T02:19:11.821Z,4.39
2018-01-02T02:21:40.110Z,4.43
2018-01-02T02:24:08.408Z,4.59
2018-01-02T02:26:36.807Z,4.60
2018-01-02T02:29:05.244Z,4.62
2018-01-02T02:31:33.554Z,4.55
2018-01-02T02:34:08.579Z,4.57
2018-01-02T02:36:36.907Z,4.66
2018-01-02T02:39:05.303Z,4.77
2018-01-02T02:41:33.819Z,4.80
2018-01-02T02:44:02.931Z,4.66
2018-01-02T02:46:31.229Z,4.69
2018-01-02T02:48:59.499Z,4.90
2018-01-02T02:51:27.846Z,4.69
2018-01-02T02:53:56.156Z,4.98
2018-01-02T02:56:24.491Z,5.04
2018-01-02T02:58:52.755Z,4.73
2018-01-02T03:01:21.043Z,4.66
2018-01-02T03:03:49.423Z,4.48
2018-01-02T03:06:17.716Z,4.52
2018-01-02T03:08:45.980Z,4.52
2018-01-02T03:11:14.354Z,4.46
2018-01-02T03:13:42.739Z,4.44
2018-01-02T03:16:11.134Z,4.55
2018-01-02T03:18:39.390Z,4.60
2018-01-02T03:21:07.848Z,4.83
2018-01-02T03:23:36.110Z,4.81
2018-01-02T03:26:04.605Z,4.93
2018-01-02T03:28:35.678Z,4.84
2018-01-02T03:31:04.731Z,4.68
2018-01-02T03:33:33.608Z,4.58
2018-01-02T03:36:02.988Z,4.53
2018-01-02T03:38:33.235Z,4.46
2018-01-02T03:41:01.660Z,4.41
2018-01-02T03:43:29.964Z,4.46
2018-01-02T03:45:58.412Z,4.49
2018-01-02T03:48:26.774Z,4.64
2018-01-02T03:50:55.066Z,4.56
2018-01-02T03:53:23.322Z,4.60
2018-01-02T03:55:51.640Z,4.48
2018-01-02T03:58:20.005Z,4.46
2018-01-02T04:00:48.470Z,4.39
2018-01-02T04:03:17.079Z,4.44
2018-01-02T04:05:45.447Z,4.34
2018-01-02T04:08:13.914Z,4.24
2018-01-02T04:10:42.220Z,4.41
2018-01-02T04:13:10.527Z,4.40
2018-01-02T04:15:38.844Z,4.25
2018-01-02T04:18:07.128Z,4.42
2018-01-02T04:20:35.522Z,4.38
2018-01-02T04:23:03.815Z,4.43
2018-01-02T04:25:32.140Z,4.47
2018-01-02T04:28:00.471Z,4.36
2018-01-02T04:30:28.758Z,4.50
2018-01-02T04:32:57.184Z,4.59
2018-01-02T04:35:25.570Z,4.61
2018-01-02T04:37:54.070Z,4.54
2018-01-02T04:40:22.351Z,4.44
2018-01-02T04:42:50.770Z,4.46
2018-01-02T04:45:19.159Z,4.51
2018-01-02T04:47:47.432Z,4.45
2018-01-02T04:50:15.718Z,4.45
2018-01-02T04:52:44.020Z,4.58
2018-01-02T04:55:12.308Z,4.57
2018-01-02T04:57:40.623Z,4.60
2018-01-02T05:00:09.404Z,4.58
2018-01-02T05:02:37.695Z,4.59
2018-01-02T05:05:05.990Z,4.62
2018-01-02T05:07:35.263Z,4.59
2018-01-02T05:10:03.691Z,4.84
2018-01-02T05:12:32.166Z,4.92
2018-01-02T05:15:00.639Z,4.80
2018-01-02T05:17:29.579Z,4.61
2018-01-02T05:19:57.853Z,4.60
2018-01-02T05:22:26.303Z,4.69
2018-01-02T05:24:54.573Z,4.76
2018-01-02T05:27:22.882Z,4.73
2018-01-02T05:29:51.212Z,4.68
2018-01-02T05:32:19.601Z,4.68
2018-01-02T05:34:47.914Z,4.82
2018-01-02T05:37:16.215Z,4.71
2018-01-02T05:39:44.494Z,4.73
2018-01-02T05:42:12.790Z,4.82
2018-01-02T05:44:41.109Z,4.75
2018-01-02T05:47:09.453Z,4.83
2018-01-02T05:49:37.747Z,4.95
2018-01-02T05:52:06.055Z,5.13
2018-01-02T05:54:34.330Z,5.13
2018-01-02T05:57:02.635Z,4.94
2018-01-02T05:59:31.018Z,5.05
2018-01-02T06:01:59.345Z,4.97
2018-01-02T06:04:27.779Z,5.11
2018-01-02T06:06:56.086Z,4.99
2018-01-02T06:09:24.352Z,5.14
2018-01-02T06:11:52.858Z,5.09
2018-01-02T06:14:21.286Z,5.23
2018-01-02T06:16:51.258Z,5.23
2018-01-02T06:19:20.072Z,5.28
2018-01-02T06:21:48.385Z,5.31
2018-01-02T06:24:16.847Z,5.16
2018-01-02T06:26:45.293Z,5.05
2018-01-02T06:29:13.618Z,5.02
2018-01-02T06:31:42.364Z,4.97
2018-01-02T06:34:11.309Z,4.99
2018-01-02T06:36:39.716Z,4.90
2018-01-02T06:39:08.018Z,4.90
2018-01-02T06:41:36.314Z,4.83
2018-01-02T06:44:04.606Z,4.88
2018-01-02T06:46:32.923Z,4.84
2018-01-02T06:49:01.258Z,4.81
2018-01-02T06:51:29.555Z,4.97
2018-01-02T06:53:57.851Z,4.87
2018-01-02T06:56:26.134Z,4.81
2018-01-02T06:58:54.423Z,4.68
2018-01-02T07:01:22.868Z,4.66
2018-01-02T07:03:51.140Z,4.63
2018-01-02T07:06:19.439Z,4.53
2018-01-02T07:08:47.875Z,4.53
2018-01-02T07:11:16.178Z,4.50
2018-01-02T07:13:44.622Z,4.52
2018-01-02T07:16:12.937Z,4.57
2018-01-02T07:18:41.219Z,4.41
2018-01-02T07:21:09.502Z,4.52
2018-01-02T07:23:37.781Z,4.52
2018-01-02T07:26:06.163Z,4.51
2018-01-02T07:28:34.484Z,4.54
2018-01-02T07:31:02.791Z,4.65
2018-01-02T07:33:31.085Z,4.66
2018-01-02T07:35:59.376Z,4.59
2018-01-02T07:38:27.658Z,4.54
2018-01-02T07:40:55.949Z,4.59
2018-01-02T07:43:24.374Z,4.66
2018-01-02T07:45:52.889Z,4.66
2018-01-02T07:48:21.259Z,4.65
2018-01-02T07:50:49.662Z,4.69
2018-01-02T07:53:18.092Z,4.71
2018-01-02T07:55:46.387Z,4.77
2018-01-02T07:58:14.655Z,4.83
2018-01-02T08:00:49.658Z,4.80
2018-01-02T08:03:17.926Z,4.70
2018-01-02T08:05:46.245Z,4.82
2018-01-02T08:08:14.531Z,4.86
2018-01-02T08:10:43.003Z,4.78
2018-01-02T08:13:11.307Z,4.80
2018-01-02T08:15:39.603Z,4.82
2018-01-02T08:18:07.887Z,4.94
2018-01-02T08:20:36.219Z,4.95
2018-01-02T08:23:04.751Z,4.70
2018-01-02T08:25:33.059Z,4.93
2018-01-02T08:28:01.364Z,4.94
2018-01-02T08:30:29.645Z,4.97
2018-01-02T08:32:58.040Z,4.88
2018-01-02T08:35:26.359Z,4.83
2018-01-02T08:37:54.633Z,4.98
2018-01-02T08:40:22.944Z,4.98
2018-01-02T08:42:51.294Z,4.98
2018-01-02T08:45:19.710Z,4.98
2018-01-02T08:47:48.142Z,4.88
2018-01-02T08:50:16.443Z,5.05
2018-01-02T08:52:44.894Z,5.00
2018-01-02T08:55:13.193Z,5.09
2018-01-02T08:57:41.471Z,5.11
2018-01-02T09:00:09.911Z,5.24
2018-01-02T09:02:38.213Z,5.22
2018-01-02T09:05:06.568Z,5.16
2018-01-02T09:07:35.059Z,5.23
2018-01-02T09:10:03.472Z,5.06
2018-01-02T09:12:35.948Z,5.21
2018-01-02T09:15:04.286Z,5.26
2018-01-02T09:17:32.553Z,5.15
2018-01-02T09:20:00.862Z,5.33
2018-01-02T09:22:29.313Z,5.31
2018-01-02T09:24:57.739Z,5.16
2018-01-02T09:27:26.123Z,5.25
2018-01-02T09:29:54.438Z,5.11
2018-01-02T09:32:22.723Z,5.20
2018-01-02T09:34:51.118Z,5.30
2018-01-02T09:37:19.472Z,5.23
2018-01-02T09:39:47.773Z,5.18
2018-01-02T09:42:16.191Z,5.32
2018-01-02T09:44:44.631Z,5.36
2018-01-02T09:47:13.550Z,5.30
2018-01-02T09:49:42.099Z,5.14
2018-01-02T09:52:10.600Z,5.11
2018-01-02T09:54:38.900Z,5.27
2018-01-02T09:57:07.222Z,5.21
2018-01-02T09:59:35.545Z,5.44
2018-01-02T10:02:03.871Z,5.37
2018-01-02T10:04:32.153Z,5.41
2018-01-02T10:07:00.484Z,5.45
2018-01-02T10:09:28.788Z,5.52
2018-01-02T10:11:57.119Z,5.60
2018-01-02T10:14:25.459Z,5.54
2018-01-02T10:16:53.850Z,5.46
2018-01-02T10:19:22.161Z,5.46
2018-01-02T10:21:50.488Z,5.39
2018-01-02T10:24:18.900Z,5.42
2018-01-02T10:26:47.321Z,5.45
2018-01-02T10:29:15.691Z,5.55
2018-01-02T10:31:44.183Z,5.55
2018-01-02T10:34:12.635Z,5.54
2018-01-02T10:36:41.107Z,5.70
2018-01-02T10:39:09.574Z,5.77
2018-01-02T10:41:37.914Z,5.77
2018-01-02T10:44:06.174Z,5.76
2018-01-02T10:46:34.640Z,5.87
2018-01-02T10:49:02.930Z,5.75
2018-01-02T10:51:31.244Z,5.70
2018-01-02T10:54:00.543Z,5.72
2018-01-02T10:56:28.962Z,5.70
2018-01-02T10:58:57.243Z,5.76
2018-01-02T11:01:28.444Z,5.86
2018-01-02T11:03:56.755Z,5.66
2018-01-02T11:06:25.110Z,5.65
2018-01-02T11:08:53.620Z,5.72
2018-01-02T11:11:22.142Z,5.69
2018-01-02T11:13:53.581Z,5.67
2018-01-02T11:16:22.055Z,5.82
2018-01-02T11:18:52.108Z,5.72
2018-01-02T11:21:21.243Z,5.70
2018-01-02T11:23:49.535Z,5.82
2018-01-02T11:26:17.866Z,5.83
2018-01-02T11:28:46.382Z,5.90
2018-01-02T11:31:14.758Z,5.84
2018-01-02T11:33:43.060Z,5.83
2018-01-02T11:36:12.439Z,5.93
2018-01-02T11:38:40.790Z,5.94
2018-01-02T11:41:09.282Z,5.94
2018-01-02T11:43:37.600Z,5.92
2018-01-02T11:46:05.933Z,5.79
2018-01-02T11:48:34.224Z,5.87
2018-01-02T11:51:02.630Z,5.93
2018-01-02T11:53:30.915Z,6.03
2018-01-02T11:55:59.226Z,6.06
2018-01-02T11:58:27.718Z,6.05
2018-01-02T12:00:56.127Z,6.12
2018-01-02T12:03:24.397Z,6.25
2018-01-02T12:05:52.974Z,6.37
2018-01-02T12:08:21.245Z,6.33
2018-01-02T12:10:49.764Z,6.43
2018-01-02T12:13:18.063Z,6.33
2018-01-02T12:15:46.380Z,6.27
2018-01-02T12:18:14.695Z,6.26
2018-01-02T12:20:43.059Z,6.44
2018-01-02T12:23:11.375Z,6.51
2018-01-02T12:25:39.727Z,6.59
2018-01-02T12:28:08.067Z,6.69
2018-01-02T12:30:36.410Z,6.86
2018-01-02T12:33:04.806Z,7.02
2018-01-02T12:35:33.171Z,6.98
2018-01-02T12:38:01.492Z,6.84
2018-01-02T12:40:31.436Z,7.03
2018-01-02T12:43:00.072Z,6.86
2018-01-02T12:45:35.452Z,6.85
2018-01-02T12:48:04.707Z,6.64
2018-01-02T12:50:33.035Z,6.57
2018-01-02T12:53:01.327Z,6.64
2018-01-02T12:55:29.785Z,6.74
2018-01-02T12:57:58.108Z,6.76
2018-01-02T13:00:26.475Z,6.64
2018-01-02T13:02:54.760Z,6.84
2018-01-02T13:05:26.369Z,6.78
2018-01-02T13:07:55.267Z,6.64
2018-01-02T13:10:23.746Z,6.71
2018-01-02T13:12:52.046Z,6.75
2018-01-02T13:15:20.399Z,6.69
2018-01-02T13:17:53.364Z,6.67
2018-01-02T13:20:23.055Z,6.70
2018-01-02T13:22:51.338Z,6.62
2018-01-02T13:25:19.718Z,6.76
2018-01-02T13:27:48.006Z,6.83
2018-01-02T13:30:16.478Z,6.75
2018-01-02T13:32:44.769Z,6.84
2018-01-02T13:35:13.176Z,6.74
2018-01-02T13:37:41.443Z,6.70
2018-01-02T13:40:09.967Z,6.79
2018-01-02T13:42:38.270Z,6.82
2018-01-02T13:45:06.883Z,6.88
2018-01-02T13:47:35.146Z,6.88
2018-01-02T13:50:04.434Z,6.90
2018-01-02T13:52:32.700Z,7.03
2018-01-02T13:55:01.059Z,6.93
2018-01-02T13:57:29.410Z,7.08
2018-01-02T13:59:57.816Z,6.98
2018-01-02T14:02:26.156Z,6.96
2018-01-02T14:04:54.435Z,6.95
2018-01-02T14:07:22.872Z,6.93
2018-01-02T14:09:51.231Z,6.93
2018-01-02T14:12:19.598Z,6.92
2018-01-02T14:14:48.412Z,6.87
2018-01-02T14:17:16.790Z,6.78
2018-01-02T14:19:45.092Z,6.95
2018-01-02T14:22:13.415Z,6.82
2018-01-02T14:24:42.686Z,6.87
2018-01-02T14:27:11.014Z,6.73
2018-01-02T14:29:39.371Z,6.57
2018-01-02T14:32:07.681Z,6.58
2018-01-02T14:34:36.050Z,6.73
2018-01-02T14:37:04.455Z,6.56
2018-01-02T14:39:32.906Z,6.71
2018-01-02T14:42:01.396Z,6.70
2018-01-02T14:44:29.729Z,6.70
2018-01-02T14:46:58.259Z,6.64
2018-01-02T14:49:26.564Z,6.55
2018-01-02T14:51:54.873Z,6.67
2018-01-02T14:54:23.555Z,6.55
2018-01-02T14:56:52.667Z,6.55
2018-01-02T14:59:20.958Z,6.43
2018-01-02T15:01:49.273Z,6.44
2018-01-02T15:04:17.723Z,6.34
2018-01-02T15:06:46.215Z,6.31
2018-01-02T15:09:14.637Z,6.22
2018-01-02T15:11:42.951Z,6.18
2018-01-02T15:14:11.296Z,6.09
2018-01-02T15:16:40.866Z,6.15
2018-01-02T15:19:09.178Z,6.09
2018-01-02T15:21:37.515Z,6.16
2018-01-02T15:24:05.818Z,6.27
2018-01-02T15:26:34.143Z,6.24
2018-01-02T15:29:02.447Z,6.21
2018-01-02T15:31:31.435Z,6.18
2018-01-02T15:33:59.743Z,6.16
2018-01-02T15:36:28.101Z,6.17
2018-01-02T15:38:56.411Z,6.14
2018-01-02T15:41:24.775Z,6.19
2018-01-02T15:44:56.241Z,6.10
2018-01-02T15:47:26.241Z,5.94
2018-01-02T15:49:54.694Z,6.05
2018-01-02T15:52:23.051Z,6.01
2018-01-02T15:54:58.190Z,6.01
2018-01-02T15:57:26.565Z,5.86
2018-01-02T15:59:54.862Z,5.89
2018-01-02T16:02:23.228Z,5.86
2018-01-02T16:04:51.744Z,5.91
2018-01-02T16:07:20.092Z,5.93
2018-01-02T16:09:48.482Z,5.91
2018-01-02T16:12:16.839Z,6.01
2018-01-02T16:14:45.146Z,6.06
2018-01-02T16:17:14.255Z,6.02
2018-01-02T16:19:42.602Z,6.11
2018-01-02T16:22:10.980Z,5.92
2018-01-02T16:24:40.709Z,5.98
2018-01-02T16:27:10.582Z,5.89
2018-01-02T16:29:39.217Z,5.85
2018-01-02T16:32:07.824Z,5.88
2018-01-02T16:34:36.447Z,5.86
2018-01-02T16:37:04.941Z,5.87
2018-01-02T16:39:33.237Z,5.87
2018-01-02T16:42:01.551Z,5.90
2018-01-02T16:44:29.923Z,5.85
2018-01-02T16:46:59.900Z,5.74
2018-01-02T16:49:28.818Z,5.69
2018-01-02T16:52:04.400Z,5.77
2018-01-02T16:54:32.694Z,5.72
2018-01-02T16:57:01.009Z,5.71
2018-01-02T16:59:29.351Z,5.74
2018-01-02T17:01:57.671Z,5.85
2018-01-02T17:04:26.147Z,5.86
2018-01-02T17:06:54.419Z,5.86
2018-01-02T17:09:22.891Z,5.89
2018-01-02T17:11:51.367Z,5.96
2018-01-02T17:14:19.655Z,5.79
2018-01-02T17:16:47.954Z,5.78
2018-01-02T17:19:19.315Z,5.79
2018-01-02T17:21:47.742Z,5.71
2018-01-02T17:24:16.022Z,5.87
2018-01-02T17:26:44.412Z,5.84
2018-01-02T17:29:12.704Z,5.86
2018-01-02T17:31:41.068Z,5.87
2018-01-02T17:34:09.529Z,5.87
2018-01-02T17:36:38.186Z,5.80
2018-01-02T17:39:06.686Z,5.82
2018-01-02T17:41:35.266Z,5.99
2018-01-02T17:44:03.564Z,5.84
2018-01-02T17:46:31.959Z,5.92
2018-01-02T17:49:00.409Z,5.88
2018-01-02T17:51:28.788Z,5.88
2018-01-02T17:53:57.303Z,5.90
2018-01-02T17:56:25.688Z,5.82
2018-01-02T17:58:54.105Z,5.79
2018-01-02T18:01:22.487Z,5.84
2018-01-02T18:03:51.155Z,5.88
2018-01-02T18:06:19.614Z,5.80
2018-01-02T18:08:48.076Z,5.77
2018-01-02T18:11:16.514Z,5.62
2018-01-02T18:13:45.023Z,5.67
2018-01-02T18:16:13.430Z,5.65
2018-01-02T18:18:41.728Z,5.62
2018-01-02T18:21:10.078Z,5.68
2018-01-02T18:23:38.511Z,5.65
2018-01-02T18:26:07.012Z,5.72
2018-01-02T18:28:35.290Z,5.75
2018-01-02T18:31:04.584Z,5.70
2018-01-02T18:33:32.986Z,5.83
2018-01-02T18:36:01.619Z,5.73
2018-01-02T18:38:32.902Z,5.69
2018-01-02T18:41:02.270Z,5.66
2018-01-02T18:43:31.193Z,5.71
2018-01-02T18:46:00.673Z,5.72
2018-01-02T18:48:30.220Z,5.83
2018-01-02T18:50:58.574Z,5.82
2018-01-02T18:53:26.847Z,5.70
2018-01-02T18:55:55.176Z,5.80
2018-01-02T18:58:23.536Z,5.72
2018-01-02T19:00:51.931Z,5.73
2018-01-02T19:03:20.235Z,5.74
2018-01-02T19:05:48.544Z,5.75
2018-01-02T19:08:16.994Z,5.72
2018-01-02T19:10:45.327Z,5.68
2018-01-02T19:13:13.615Z,5.74
2018-01-02T19:15:41.919Z,5.76
2018-01-02T19:18:10.196Z,5.73
2018-01-02T19:20:38.508Z,5.70
2018-01-02T19:23:06.783Z,5.70
2018-01-02T19:25:35.134Z,5.83
2018-01-02T19:28:04.962Z,5.79
2018-01-02T19:30:34.075Z,5.72
2018-01-02T19:33:04.879Z,5.71
2018-01-02T19:35:33.274Z,5.78
2018-01-02T19:38:01.815Z,5.69
2018-01-02T19:40:30.353Z,5.72
2018-01-02T19:42:58.765Z,5.63
2018-01-02T19:45:27.354Z,5.64
2018-01-02T19:47:55.896Z,5.75
2018-01-02T19:50:24.271Z,5.76
2018-01-02T19:52:52.894Z,5.71
2018-01-02T19:55:21.250Z,5.60
2018-01-02T19:57:50.270Z,5.62
2018-01-02T20:00:21.940Z,5.60
2018-01-02T20:02:50.249Z,5.59
2018-01-02T20:05:18.571Z,5.38
2018-01-02T20:07:46.927Z,5.47
2018-01-02T20:10:15.276Z,5.51
2018-01-02T20:12:44.776Z,5.38
2018-01-02T20:15:13.102Z,5.41
2018-01-02T20:17:41.668Z,5.38
2018-01-02T20:20:09.986Z,5.40
2018-01-02T20:22:38.278Z,5.25
2018-01-02T20:25:06.588Z,5.27
2018-01-02T20:27:35.076Z,5.26
2018-01-02T20:30:03.452Z,5.28
2018-01-02T20:32:32.927Z,5.19
2018-01-02T20:35:01.415Z,5.20
2018-01-02T20:37:29.808Z,5.13
2018-01-02T20:39:59.898Z,5.06
2018-01-02T20:42:28.691Z,5.06
2018-01-02T20:44:57.248Z,4.96
2018-01-02T20:47:25.640Z,4.87
2018-01-02T20:49:53.947Z,4.81
2018-01-02T20:52:22.843Z,4.71
2018-01-02T20:54:51.136Z,4.67
2018-01-02T20:57:19.474Z,4.61
2018-01-02T20:59:47.754Z,4.60
2018-01-02T21:02:16.069Z,4.49
2018-01-02T21:04:44.551Z,8.35
2018-01-02T21:07:12.847Z,11.62
2018-01-02T21:09:42.649Z,7.86
2018-01-02T21:12:12.346Z,5.59
2018-01-02T21:14:40.690Z,5.18
2018-01-02T21:17:09.566Z,4.78
2018-01-02T21:19:38.167Z,4.80
2018-01-02T21:22:06.647Z,4.72
2018-01-02T21:24:35.091Z,4.56
2018-01-02T21:27:03.694Z,4.55
2018-01-02T21:29:32.074Z,4.57
2018-01-02T21:32:00.650Z,4.55
2018-01-02T21:34:29.739Z,4.57
2018-01-02T21:36:58.155Z,4.58
2018-01-02T21:39:26.502Z,4.47
2018-01-02T21:41:54.962Z,4.47
2018-01-02T21:44:23.366Z,4.53
2018-01-02T21:46:51.748Z,4.58
2018-01-02T21:49:21.748Z,4.48
2018-01-02T21:51:50.473Z,4.58
2018-01-02T21:54:18.768Z,4.56
2018-01-02T21:56:47.094Z,4.54
2018-01-02T21:59:15.537Z,4.55
2018-01-02T22:01:43.887Z,4.49
2018-01-02T22:04:12.408Z,4.48
2018-01-02T22:06:41.003Z,4.39
2018-01-02T22:09:09.520Z,4.33
2018-01-02T22:11:37.914Z,4.31
2018-01-02T22:14:06.330Z,4.24
2018-01-02T22:16:34.646Z,4.14
2018-01-02T22:19:03.127Z,4.12
2018-01-02T22:21:32.318Z,4.03
2018-01-02T22:24:00.691Z,3.93
2018-01-02T22:26:28.987Z,3.90
2018-01-02T22:28:57.312Z,3.83
2018-01-02T22:31:26.030Z,3.86
2018-01-02T22:33:54.817Z,3.75
2018-01-02T22:36:23.453Z,3.73
2018-01-02T22:38:51.935Z,3.66
2018-01-02T22:41:20.812Z,3.62
2018-01-02T22:43:49.270Z,3.56
2018-01-02T22:46:17.588Z,3.51
2018-01-02T22:48:45.927Z,3.48
2018-01-02T22:51:14.595Z,3.42
2018-01-02T22:53:42.898Z,3.37
2018-01-02T22:56:11.490Z,3.35
2018-01-02T22:58:39.836Z,3.34
2018-01-02T23:01:08.434Z,3.29
2018-01-02T23:03:36.899Z,3.28
2018-01-02T23:06:05.242Z,3.16
2018-01-02T23:08:33.569Z,3.23
2018-01-02T23:11:01.919Z,3.13
2018-01-02T23:13:30.204Z,3.15
2018-01-02T23:15:58.507Z,3.12
2018-01-02T23:18:26.835Z,3.05
2018-01-02T23:20:55.400Z,3.05
2018-01-02T23:23:23.731Z,2.99
2018-01-02T23:25:52.335Z,2.93
2018-01-02T23:28:20.615Z,2.90
2018-01-02T23:30:48.943Z,2.92
2018-01-02T23:33:17.376Z,2.85
2018-01-02T23:35:45.715Z,2.85
2018-01-02T23:38:14.047Z,2.81
2018-01-02T23:40:42.340Z,2.85
2018-01-02T23:43:10.858Z,2.83
2018-01-02T23:45:39.172Z,2.86
2018-01-02T23:48:07.522Z,2.79
2018-01-02T23:50:35.831Z,2.84
2018-01-02T23:53:04.173Z,2.85
2018-01-02T23:55:32.573Z,2.84
2018-01-02T23:58:01.012Z,2.84
